createdAt,value
2019-05-13T00:00:05.349Z,51.60
2019-05-13T00:02:40.739Z,51.60
2019-05-13T00:05:11.659Z,51.70
2019-05-13T00:07:47.383Z,51.90
2019-05-13T00:10:17.775Z,52.10
2019-05-13T00:12:48.169Z,52.30
2019-05-13T00:15:18.768Z,52.50
2019-05-13T00:17:49.406Z,52.70
2019-05-13T00:20:19.798Z,52.80
2019-05-13T00:22:54.165Z,53.00
2019-05-13T00:25:25.255Z,53.10
2019-05-13T00:27:55.520Z,53.30
2019-05-13T00:30:26.229Z,53.50
2019-05-13T00:32:58.281Z,53.60
2019-05-13T00:35:28.971Z,53.90
2019-05-13T00:37:59.699Z,54.10
2019-05-13T00:40:33.433Z,54.20
2019-05-13T00:43:04.149Z,54.40
2019-05-13T00:45:34.705Z,54.60
2019-05-13T00:48:05.188Z,54.80
2019-05-13T00:50:35.568Z,55.10
2019-05-13T00:53:06.653Z,55.00
2019-05-13T00:55:37.698Z,55.40
2019-05-13T00:58:08.324Z,55.60
2019-05-13T01:00:38.983Z,55.90
2019-05-13T01:03:09.697Z,56.10
2019-05-13T01:05:40.292Z,56.10
2019-05-13T01:08:10.605Z,56.30
2019-05-13T01:10:40.924Z,56.70
2019-05-13T01:13:13.176Z,56.80
2019-05-13T01:15:44.259Z,56.90
2019-05-13T01:18:15.636Z,57.00
2019-05-13T01:20:49.859Z,57.10
2019-05-13T01:23:20.572Z,57.30
2019-05-13T01:25:51.255Z,57.30
2019-05-13T01:28:23.911Z,57.50
2019-05-13T01:30:54.649Z,57.60
2019-05-13T01:33:26.489Z,57.60
2019-05-13T01:35:57.234Z,57.70
2019-05-13T01:38:27.857Z,57.70
2019-05-13T01:40:58.897Z,57.80
2019-05-13T01:43:29.557Z,57.80
2019-05-13T01:46:00.342Z,58.00
2019-05-13T01:48:33.307Z,58.00
2019-05-13T01:51:04.089Z,58.20
2019-05-13T01:53:35.230Z,58.20
2019-05-13T01:56:05.551Z,58.40
2019-05-13T01:58:36.179Z,58.40
2019-05-13T02:01:10.711Z,58.40
2019-05-13T02:03:41.075Z,58.50
2019-05-13T02:06:13.958Z,58.60
2019-05-13T02:08:44.342Z,58.70
2019-05-13T02:11:14.999Z,58.80
2019-05-13T02:13:45.639Z,58.80
2019-05-13T02:16:16.258Z,58.90
2019-05-13T02:18:46.585Z,58.90
2019-05-13T02:21:16.863Z,59.00
2019-05-13T02:23:47.847Z,59.20
2019-05-13T02:26:18.612Z,59.20
2019-05-13T02:28:49.204Z,59.40
2019-05-13T02:31:31.953Z,59.50
2019-05-13T02:33:53.166Z,59.60
2019-05-13T02:36:23.739Z,59.60
2019-05-13T02:38:54.805Z,59.70
2019-05-13T02:41:25.766Z,59.70
2019-05-13T02:43:56.684Z,59.80
2019-05-13T02:46:27.016Z,59.80
2019-05-13T02:48:57.642Z,59.80
2019-05-13T02:51:28.248Z,59.90
2019-05-13T02:53:59.254Z,60.00
2019-05-13T02:56:32.821Z,60.10
2019-05-13T02:59:04.042Z,60.20
2019-05-13T03:01:34.700Z,60.20
2019-05-13T03:04:05.759Z,60.20
2019-05-13T03:06:36.373Z,60.30
2019-05-13T03:09:08.654Z,60.50
2019-05-13T03:11:41.513Z,60.50
2019-05-13T03:14:12.819Z,60.80
2019-05-13T03:16:53.497Z,60.90
2019-05-13T03:19:23.823Z,60.80
2019-05-13T03:21:54.813Z,61.00
2019-05-13T03:24:25.562Z,61.00
2019-05-13T03:26:56.195Z,61.10
2019-05-13T03:29:26.825Z,61.20
2019-05-13T03:31:57.143Z,61.30
2019-05-13T03:34:28.577Z,61.40
2019-05-13T03:37:05.473Z,61.30
2019-05-13T03:39:35.416Z,61.40
2019-05-13T03:42:06.562Z,61.60
2019-05-13T03:44:42.576Z,61.70
2019-05-13T03:47:12.931Z,61.80
2019-05-13T03:49:44.822Z,62.30
2019-05-13T03:52:16.052Z,62.00
2019-05-13T03:54:47.676Z,62.10
2019-05-13T03:57:18.451Z,62.20
2019-05-13T03:59:52.560Z,62.20
2019-05-13T04:02:24.009Z,62.40
2019-05-13T04:04:58.354Z,62.20
2019-05-13T04:07:27.018Z,62.20
2019-05-13T04:09:57.571Z,62.30
2019-05-13T04:12:28.681Z,62.20
2019-05-13T04:15:03.277Z,63.60
2019-05-13T04:17:33.070Z,64.60
2019-05-13T04:20:03.586Z,62.30
2019-05-13T04:22:34.030Z,60.80
2019-05-13T04:25:05.250Z,59.10
2019-05-13T04:27:36.299Z,57.40
2019-05-13T04:30:13.399Z,55.60
2019-05-13T04:32:44.224Z,53.90
2019-05-13T04:35:14.938Z,52.30
2019-05-13T04:37:45.573Z,51.00
2019-05-13T04:40:16.114Z,49.70
2019-05-13T04:42:46.423Z,47.90
2019-05-13T04:45:18.215Z,46.70
2019-05-13T04:47:52.564Z,45.60
2019-05-13T04:50:22.635Z,44.80
2019-05-13T04:52:54.176Z,43.40
2019-05-13T04:55:24.520Z,42.50
2019-05-13T04:57:55.747Z,41.90
2019-05-13T05:01:28.302Z,41.30
2019-05-13T05:04:22.150Z,40.80
2019-05-13T05:07:03.481Z,40.40
2019-05-13T05:10:22.080Z,39.90
2019-05-13T05:13:26.651Z,39.60
2019-05-13T05:16:28.963Z,39.00
2019-05-13T05:19:32.366Z,39.00
2019-05-13T05:22:24.523Z,38.50
2019-05-13T05:25:13.944Z,38.40
2019-05-13T05:28:33.803Z,38.00
2019-05-13T05:31:36.955Z,37.40
2019-05-13T05:35:26.679Z,37.60
2019-05-13T05:38:25.246Z,37.50
2019-05-13T05:40:56.344Z,37.70
2019-05-13T05:43:31.376Z,37.40
2019-05-13T05:46:04.255Z,37.40
2019-05-13T05:48:38.094Z,38.00
2019-05-13T05:51:13.199Z,37.90
2019-05-13T05:53:47.315Z,37.50
2019-05-13T05:56:22.008Z,37.40
2019-05-13T05:58:54.152Z,37.80
2019-05-13T06:01:26.227Z,37.80
2019-05-13T06:03:58.585Z,38.40
2019-05-13T06:06:33.003Z,38.80
2019-05-13T06:09:06.784Z,39.50
2019-05-13T06:11:38.102Z,40.30
2019-05-13T06:14:11.116Z,40.60
2019-05-13T06:16:42.534Z,40.40
2019-05-13T06:19:13.182Z,41.00
2019-05-13T06:21:43.871Z,41.50
2019-05-13T06:24:14.204Z,42.20
2019-05-13T06:26:44.530Z,42.90
2019-05-13T06:29:15.357Z,43.70
2019-05-13T06:31:46.214Z,44.20
2019-05-13T06:34:16.878Z,45.10
2019-05-13T06:36:48.315Z,45.70
2019-05-13T06:39:19.127Z,46.30
2019-05-13T06:41:51.657Z,46.60
2019-05-13T06:44:22.755Z,46.80
2019-05-13T06:46:53.486Z,47.20
2019-05-13T06:49:23.998Z,47.80
2019-05-13T06:51:54.400Z,48.10
2019-05-13T06:54:25.198Z,48.30
2019-05-13T06:56:55.951Z,48.20
2019-05-13T06:59:34.074Z,48.70
2019-05-13T07:02:04.590Z,49.20
2019-05-13T07:04:35.424Z,49.60
2019-05-13T07:07:13.142Z,49.80
2019-05-13T07:09:42.675Z,49.80
2019-05-13T07:12:12.928Z,50.20
2019-05-13T07:14:55.160Z,50.00
2019-05-13T07:17:25.215Z,49.90
2019-05-13T07:19:55.688Z,50.10
2019-05-13T07:22:26.624Z,50.70
2019-05-13T07:24:57.354Z,50.80
2019-05-13T07:27:28.168Z,51.00
2019-05-13T07:29:58.531Z,51.00
2019-05-13T07:32:31.488Z,50.90
2019-05-13T07:35:13.367Z,51.10
2019-05-13T07:37:44.874Z,51.10
2019-05-13T07:40:16.126Z,50.80
2019-05-13T07:42:46.876Z,51.40
2019-05-13T07:45:21.321Z,51.50
2019-05-13T07:47:52.241Z,50.90
2019-05-13T07:50:25.084Z,51.40
2019-05-13T07:52:55.867Z,51.50
2019-05-13T07:55:26.378Z,51.50
2019-05-13T07:57:57.488Z,51.50
2019-05-13T08:00:27.941Z,51.60
2019-05-13T08:03:01.017Z,51.90
2019-05-13T08:05:31.525Z,52.00
2019-05-13T08:08:02.461Z,51.80
2019-05-13T08:10:33.651Z,51.90
2019-05-13T08:13:22.266Z,51.60
2019-05-13T08:15:54.886Z,52.20
2019-05-13T08:18:34.096Z,51.60
2019-05-13T08:21:04.795Z,51.30
2019-05-13T08:23:35.598Z,51.30
2019-05-13T08:26:05.980Z,51.30
2019-05-13T08:28:52.797Z,50.20
2019-05-13T08:31:09.165Z,50.10
2019-05-13T08:33:42.300Z,49.40
2019-05-13T08:36:13.400Z,48.50
2019-05-13T08:38:43.958Z,48.70
2019-05-13T08:41:19.002Z,71.40
2019-05-13T08:44:16.237Z,71.90
2019-05-13T08:49:32.517Z,54.20
2019-05-13T08:52:05.876Z,66.10
2019-05-13T08:54:36.492Z,45.20
2019-05-13T08:57:07.397Z,60.80
2019-05-13T09:07:16.609Z,52.40
2019-05-13T09:09:47.139Z,42.90
2019-05-13T09:14:52.608Z,42.70
2019-05-13T09:17:24.062Z,54.60
2019-05-13T09:19:57.087Z,42.30
2019-05-13T09:22:28.717Z,41.50
2019-05-13T09:25:02.151Z,39.50
2019-05-13T09:27:35.020Z,52.20
2019-05-13T09:30:08.438Z,42.00
2019-05-13T09:32:39.351Z,43.30
2019-05-13T09:35:12.018Z,42.50
2019-05-13T09:37:51.657Z,42.40
2019-05-13T09:40:24.862Z,42.10
2019-05-13T09:42:55.530Z,42.20
2019-05-13T09:45:26.846Z,42.30
2019-05-13T09:48:05.084Z,42.30
2019-05-13T09:50:36.316Z,42.50
2019-05-13T09:53:22.315Z,42.60
2019-05-13T09:55:58.026Z,42.80
2019-05-13T09:58:32.185Z,42.80
2019-05-13T10:01:02.996Z,42.60
2019-05-13T10:03:33.793Z,42.40
2019-05-13T10:06:04.886Z,41.90
2019-05-13T10:08:35.230Z,41.60
2019-05-13T10:11:15.672Z,42.00
2019-05-13T10:13:46.266Z,42.20
2019-05-13T10:16:16.685Z,42.20
2019-05-13T10:18:48.011Z,42.40
2019-05-13T10:21:21.672Z,42.20
2019-05-13T10:23:58.806Z,41.80
2019-05-13T10:26:28.076Z,41.80
2019-05-13T10:29:01.732Z,41.30
2019-05-13T10:31:37.631Z,40.50
2019-05-13T10:34:08.700Z,40.70
2019-05-13T10:36:41.545Z,40.70
2019-05-13T10:39:14.032Z,40.80
2019-05-13T10:41:45.003Z,40.70
2019-05-13T10:44:16.405Z,40.40
2019-05-13T10:46:52.062Z,40.30
2019-05-13T10:49:22.971Z,40.60
2019-05-13T10:51:53.509Z,40.50
2019-05-13T10:54:23.970Z,40.60
2019-05-13T10:56:59.425Z,40.50
2019-05-13T10:59:27.084Z,40.40
2019-05-13T11:02:02.708Z,40.00
2019-05-13T11:04:36.440Z,39.80
2019-05-13T11:07:07.391Z,39.40
2019-05-13T11:09:41.797Z,39.10
2019-05-13T11:12:13.296Z,38.80
2019-05-13T11:14:51.495Z,38.70
2019-05-13T11:17:31.093Z,38.80
2019-05-13T11:20:03.110Z,38.40
2019-05-13T11:22:32.998Z,37.90
2019-05-13T11:25:03.358Z,37.80
2019-05-13T11:27:34.934Z,37.90
2019-05-13T11:30:07.281Z,37.50
2019-05-13T11:32:38.345Z,37.30
2019-05-13T11:35:12.359Z,37.40
2019-05-13T11:37:43.572Z,37.40
2019-05-13T11:40:14.475Z,37.40
2019-05-13T11:42:45.270Z,37.30
2019-05-13T11:45:16.289Z,37.60
2019-05-13T11:47:46.690Z,37.70
2019-05-13T11:50:17.536Z,37.70
2019-05-13T11:52:47.891Z,37.80
2019-05-13T11:55:18.740Z,38.00
2019-05-13T11:57:49.333Z,37.90
2019-05-13T12:00:53.209Z,37.70
2019-05-13T12:03:23.527Z,37.80
2019-05-13T12:05:54.190Z,37.30
2019-05-13T12:08:25.392Z,36.80
2019-05-13T12:10:55.715Z,37.00
2019-05-13T12:13:26.734Z,36.70
2019-05-13T12:15:57.709Z,36.20
2019-05-13T12:18:31.214Z,35.90
2019-05-13T12:21:03.327Z,35.30
2019-05-13T12:23:34.388Z,34.90
2019-05-13T12:26:06.349Z,34.80
2019-05-13T12:28:41.533Z,34.10
2019-05-13T12:31:13.427Z,33.50
2019-05-13T12:33:44.290Z,33.40
2019-05-13T12:36:18.566Z,33.40
2019-05-13T12:38:52.940Z,33.50
2019-05-13T12:41:23.042Z,33.40
2019-05-13T12:43:54.260Z,33.10
2019-05-13T12:46:25.141Z,32.70
2019-05-13T12:48:55.665Z,33.00
2019-05-13T12:51:26.313Z,32.50
2019-05-13T12:53:56.762Z,32.00
2019-05-13T12:56:32.843Z,31.90
2019-05-13T12:59:02.904Z,32.10
2019-05-13T13:01:33.620Z,32.10
2019-05-13T13:04:04.424Z,31.80
2019-05-13T13:06:40.698Z,31.50
2019-05-13T13:09:12.434Z,31.00
2019-05-13T13:11:43.467Z,30.80
2019-05-13T13:14:16.538Z,31.10
2019-05-13T13:16:46.766Z,30.80
2019-05-13T13:19:17.438Z,30.50
2019-05-13T13:21:47.743Z,29.80
2019-05-13T13:24:18.046Z,29.60
2019-05-13T13:26:48.369Z,29.40
2019-05-13T13:29:21.993Z,29.50
2019-05-13T13:31:55.664Z,29.00
2019-05-13T13:34:26.402Z,28.90
2019-05-13T13:36:57.143Z,27.20
2019-05-13T13:39:27.950Z,27.70
2019-05-13T13:42:04.981Z,27.70
2019-05-13T13:44:35.001Z,27.60
2019-05-13T13:47:16.994Z,27.50
2019-05-13T13:49:49.735Z,27.30
2019-05-13T13:52:22.907Z,27.60
2019-05-13T13:55:09.151Z,27.80
2019-05-13T13:57:44.822Z,27.90
2019-05-13T14:00:32.918Z,28.00
2019-05-13T14:02:53.723Z,28.30
2019-05-13T14:05:42.577Z,28.50
2019-05-13T14:07:04.309Z,50.80
2019-05-13T14:08:15.377Z,28.40
2019-05-13T14:10:47.174Z,28.20
2019-05-13T14:13:28.048Z,28.10
2019-05-13T14:16:01.876Z,28.10
2019-05-13T14:18:36.954Z,28.00
2019-05-13T14:21:08.259Z,28.10
2019-05-13T14:23:47.452Z,28.20
2019-05-13T14:26:22.222Z,28.40
2019-05-13T14:29:02.667Z,28.40
2019-05-13T14:31:41.397Z,28.60
2019-05-13T14:34:12.929Z,28.90
2019-05-13T14:36:48.125Z,29.00
2019-05-13T14:39:24.552Z,28.70
2019-05-13T14:42:01.543Z,28.70
2019-05-13T14:44:41.390Z,28.80
2019-05-13T14:47:12.599Z,28.50
2019-05-13T14:49:43.367Z,28.40
2019-05-13T14:52:13.832Z,28.30
2019-05-13T14:54:44.443Z,28.20
2019-05-13T14:57:15.218Z,28.40
2019-05-13T14:59:47.996Z,28.30
2019-05-13T15:02:25.846Z,28.20
2019-05-13T15:04:57.494Z,28.30
2019-05-13T15:07:31.692Z,28.40
2019-05-13T15:10:12.291Z,28.40
2019-05-13T15:12:45.999Z,28.70
2019-05-13T15:15:22.419Z,28.90
2019-05-13T15:17:54.735Z,29.00
2019-05-13T15:20:25.144Z,29.10
2019-05-13T15:22:59.268Z,29.10
2019-05-13T15:25:35.610Z,29.10
2019-05-13T15:28:07.369Z,29.10
2019-05-13T15:30:42.247Z,29.20
2019-05-13T15:33:25.969Z,29.20
2019-05-13T15:36:16.067Z,29.40
2019-05-13T15:38:51.525Z,29.50
2019-05-13T15:41:41.767Z,29.30
2019-05-13T15:44:18.617Z,29.10
2019-05-13T15:46:49.066Z,28.90
2019-05-13T15:49:27.506Z,29.00
2019-05-13T15:52:01.716Z,28.80
2019-05-13T15:54:32.723Z,28.90
2019-05-13T15:57:03.969Z,28.70
2019-05-13T15:59:34.555Z,28.80
2019-05-13T16:02:08.489Z,29.10
2019-05-13T16:04:49.918Z,29.10
2019-05-13T16:07:12.547Z,29.20
2019-05-13T16:09:43.206Z,29.30
2019-05-13T16:12:14.202Z,29.40
2019-05-13T16:14:44.856Z,29.70
2019-05-13T16:17:15.938Z,29.70
2019-05-13T16:19:47.111Z,29.70
2019-05-13T16:22:19.634Z,29.80
2019-05-13T16:24:52.118Z,29.90
2019-05-13T16:27:22.401Z,29.80
2019-05-13T16:29:53.347Z,29.80
2019-05-13T16:32:24.138Z,30.00
2019-05-13T16:34:54.849Z,30.10
2019-05-13T16:37:26.109Z,30.00
2019-05-13T16:39:56.834Z,30.00
2019-05-13T16:42:31.706Z,30.00
2019-05-13T16:45:14.838Z,30.00
2019-05-13T16:47:37.177Z,30.00
2019-05-13T16:50:08.776Z,30.00
2019-05-13T16:52:41.645Z,30.10
2019-05-13T16:55:13.999Z,30.40
2019-05-13T16:57:44.367Z,30.50
2019-05-13T17:00:18.174Z,30.70
2019-05-13T17:02:49.652Z,31.00
2019-05-13T17:05:21.558Z,31.20
2019-05-13T17:07:56.585Z,31.20
2019-05-13T17:10:31.549Z,31.40
2019-05-13T17:13:04.041Z,31.70
2019-05-13T17:15:46.314Z,31.80
2019-05-13T17:18:26.851Z,32.10
2019-05-13T17:21:01.431Z,32.00
2019-05-13T17:23:36.374Z,32.00
2019-05-13T17:26:07.294Z,32.20
2019-05-13T17:28:38.006Z,32.20
2019-05-13T17:31:08.788Z,32.10
2019-05-13T17:33:42.783Z,32.20
2019-05-13T17:36:15.599Z,32.10
2019-05-13T17:38:52.127Z,32.20
2019-05-13T17:41:32.046Z,32.20
2019-05-13T17:44:15.201Z,32.30
2019-05-13T17:46:48.128Z,32.20
2019-05-13T17:49:18.702Z,31.80
2019-05-13T17:51:51.679Z,31.80
2019-05-13T17:54:22.811Z,31.60
2019-05-13T17:56:54.123Z,31.60
2019-05-13T17:59:41.953Z,31.40
2019-05-13T18:02:27.630Z,31.30
2019-05-13T18:05:01.991Z,31.10
2019-05-13T18:07:47.828Z,31.20
2019-05-13T18:10:37.231Z,31.10
2019-05-13T18:13:16.377Z,31.10
2019-05-13T18:15:56.783Z,30.60
2019-05-13T18:18:43.114Z,31.10
2019-05-13T18:21:11.815Z,31.10
2019-05-13T18:23:44.615Z,31.20
2019-05-13T18:26:16.353Z,31.20
2019-05-13T18:29:02.388Z,31.30
2019-05-13T18:31:42.082Z,31.50
2019-05-13T18:34:21.513Z,31.70
2019-05-13T18:37:02.426Z,31.90
2019-05-13T18:39:33.744Z,32.00
2019-05-13T18:42:18.642Z,32.00
2019-05-13T18:44:56.122Z,32.00
2019-05-13T18:47:28.010Z,32.00
2019-05-13T18:50:02.350Z,31.90
2019-05-13T18:52:35.017Z,31.70
2019-05-13T18:55:07.877Z,32.10
2019-05-13T18:57:38.581Z,32.30
2019-05-13T19:00:11.105Z,32.60
2019-05-13T19:02:41.867Z,32.90
2019-05-13T19:05:12.706Z,33.20
2019-05-13T19:07:46.409Z,33.40
2019-05-13T19:10:22.002Z,33.50
2019-05-13T19:12:57.926Z,33.70
2019-05-13T19:15:32.986Z,33.70
2019-05-13T19:18:04.116Z,33.90
2019-05-13T19:20:35.172Z,33.90
2019-05-13T19:23:11.955Z,34.10
2019-05-13T19:25:42.681Z,34.10
2019-05-13T19:28:15.088Z,34.10
2019-05-13T19:31:02.423Z,34.20
2019-05-13T19:33:43.233Z,34.30
2019-05-13T19:36:20.996Z,34.20
2019-05-13T19:38:55.803Z,34.30
2019-05-13T19:41:31.501Z,34.50
2019-05-13T19:44:06.424Z,34.60
2019-05-13T19:46:53.640Z,34.50
2019-05-13T19:49:32.105Z,34.60
2019-05-13T19:51:56.719Z,34.60
2019-05-13T19:54:31.281Z,34.70
2019-05-13T19:57:08.130Z,34.80
2019-05-13T19:59:42.496Z,35.00
2019-05-13T20:02:17.429Z,35.00
2019-05-13T20:04:48.406Z,35.10
2019-05-13T20:07:19.152Z,35.20
2019-05-13T20:09:52.020Z,35.50
2019-05-13T20:12:22.486Z,35.50
2019-05-13T20:15:03.342Z,35.70
2019-05-13T20:17:41.600Z,36.50
2019-05-13T20:20:31.745Z,36.10
2019-05-13T20:23:05.226Z,36.10
2019-05-13T20:25:41.736Z,36.30
2019-05-13T20:28:42.778Z,36.50
2019-05-13T20:31:17.829Z,36.60
2019-05-13T20:33:51.775Z,36.60
2019-05-13T20:36:25.145Z,36.80
2019-05-13T20:39:07.743Z,36.90
2019-05-13T20:41:41.470Z,36.80
2019-05-13T20:44:12.442Z,36.70
2019-05-13T20:46:47.204Z,36.80
2019-05-13T20:49:22.751Z,36.80
2019-05-13T20:51:53.765Z,37.00
2019-05-13T20:54:24.671Z,37.40
2019-05-13T20:56:58.890Z,37.50
2019-05-13T20:59:32.300Z,37.50
2019-05-13T21:02:14.796Z,37.40
2019-05-13T21:04:57.147Z,37.40
2019-05-13T21:07:29.437Z,37.40
2019-05-13T21:10:09.101Z,37.40
2019-05-13T21:12:41.951Z,37.30
2019-05-13T21:15:13.202Z,37.20
2019-05-13T21:17:55.566Z,37.20
2019-05-13T21:20:41.013Z,38.00
2019-05-13T21:23:11.413Z,37.40
2019-05-13T21:25:46.114Z,37.50
2019-05-13T21:28:17.877Z,37.70
2019-05-13T21:30:52.768Z,37.80
2019-05-13T21:33:24.276Z,38.10
2019-05-13T21:35:57.021Z,38.20
2019-05-13T21:38:32.238Z,38.20
2019-05-13T21:41:11.933Z,38.20
2019-05-13T21:44:15.662Z,38.30
2019-05-13T21:47:21.938Z,38.50
2019-05-13T21:50:37.355Z,38.50
2019-05-13T21:53:01.944Z,38.40
2019-05-13T21:56:05.701Z,38.40
2019-05-13T21:58:36.918Z,38.50
2019-05-13T22:01:07.583Z,38.60
2019-05-13T22:03:38.184Z,38.70
2019-05-13T22:06:10.967Z,38.70
2019-05-13T22:08:42.289Z,38.80
2019-05-13T22:11:31.719Z,38.70
2019-05-13T22:14:19.458Z,38.60
2019-05-13T22:16:56.923Z,38.50
2019-05-13T22:20:07.187Z,38.30
2019-05-13T22:23:23.271Z,38.10
2019-05-13T22:27:21.778Z,37.60
2019-05-13T22:30:40.738Z,37.30
2019-05-13T22:34:01.589Z,37.10
2019-05-13T22:37:41.197Z,36.40
2019-05-13T22:40:17.157Z,36.40
2019-05-13T22:42:57.259Z,36.00
2019-05-13T22:45:41.919Z,35.80
2019-05-13T22:48:15.862Z,36.10
2019-05-13T22:50:53.867Z,35.20
2019-05-13T22:53:24.564Z,35.00
2019-05-13T22:55:55.006Z,35.10
2019-05-13T22:58:31.786Z,34.90
2019-05-13T23:01:13.614Z,34.60
2019-05-13T23:03:46.612Z,34.30
2019-05-13T23:06:24.008Z,34.20
2019-05-13T23:09:02.029Z,33.90
2019-05-13T23:11:44.023Z,33.70
2019-05-13T23:14:30.049Z,33.40
2019-05-13T23:17:07.726Z,33.20
2019-05-13T23:19:51.981Z,33.00
2019-05-13T23:22:25.702Z,32.70
2019-05-13T23:25:03.735Z,32.30
2019-05-13T23:27:41.567Z,32.00
2019-05-13T23:30:15.745Z,31.80
2019-05-13T23:32:48.427Z,31.70
2019-05-13T23:35:21.729Z,31.40
2019-05-13T23:37:54.070Z,31.10
2019-05-13T23:40:24.563Z,30.80
2019-05-13T23:42:54.785Z,30.70
2019-05-13T23:45:26.535Z,30.70
2019-05-13T23:47:56.911Z,30.80
2019-05-13T23:50:32.045Z,30.90
2019-05-13T23:53:00.361Z,30.90
2019-05-13T23:55:32.213Z,31.10
2019-05-13T23:58:03.153Z,30.90
